createdAt,value
2023-10-03T00:01:26.480Z,5.60
2023-10-03T00:03:54.761Z,5.59
2023-10-03T00:06:22.924Z,5.65
2023-10-03T00:08:50.990Z,5.66
2023-10-03T00:11:20.596Z,5.59
2023-10-03T00:13:51.137Z,5.50
2023-10-03T00:16:19.709Z,5.43
2023-10-03T00:18:49.150Z,5.38
2023-10-03T00:21:17.575Z,5.37
2023-10-03T00:23:45.639Z,5.32
2023-10-03T00:26:18.805Z,5.34
2023-10-03T00:28:47.269Z,5.38
2023-10-03T00:31:15.614Z,5.32
2023-10-03T00:33:44.020Z,5.31
2023-10-03T00:36:24.725Z,5.27
2023-10-03T00:38:54.247Z,5.25
2023-10-03T00:41:23.031Z,5.25
2023-10-03T00:44:02.613Z,5.24
2023-10-03T00:46:31.752Z,5.21
2023-10-03T00:49:04.776Z,5.21
2023-10-03T00:51:36.491Z,5.16
2023-10-03T00:54:05.437Z,5.20
2023-10-03T00:56:33.511Z,5.22
2023-10-03T00:59:02.142Z,5.20
2023-10-03T01:01:34.779Z,5.15
2023-10-03T01:04:17.667Z,5.13
2023-10-03T01:06:47.469Z,5.09
2023-10-03T01:09:21.232Z,5.09
2023-10-03T01:11:53.356Z,5.16
2023-10-03T01:14:21.620Z,5.19
2023-10-03T01:16:50.977Z,5.11
2023-10-03T01:19:22.656Z,5.12
2023-10-03T01:21:53.299Z,5.14
2023-10-03T01:24:25.778Z,5.13
2023-10-03T01:26:54.966Z,5.10
2023-10-03T01:29:23.660Z,5.11
2023-10-03T01:31:55.502Z,5.14
2023-10-03T01:34:24.592Z,5.16
2023-10-03T01:36:52.720Z,5.20
2023-10-03T01:39:22.132Z,5.22
2023-10-03T01:41:50.176Z,5.24
2023-10-03T01:44:19.704Z,5.22
2023-10-03T01:46:48.489Z,5.23
2023-10-03T01:49:17.272Z,5.26
2023-10-03T01:51:45.356Z,5.22
2023-10-03T01:54:13.328Z,5.21
2023-10-03T01:56:42.864Z,5.16
2023-10-03T01:59:11.190Z,5.19
2023-10-03T02:01:39.572Z,5.18
2023-10-03T02:04:08.313Z,5.19
2023-10-03T02:06:36.857Z,5.13
2023-10-03T02:09:08.568Z,5.07
2023-10-03T02:11:36.685Z,5.12
2023-10-03T02:14:09.147Z,5.08
2023-10-03T02:16:42.686Z,5.05
2023-10-03T02:19:11.037Z,5.08
2023-10-03T02:21:41.425Z,5.04
2023-10-03T02:24:10.203Z,5.01
2023-10-03T02:26:38.865Z,5.07
2023-10-03T02:29:08.387Z,5.09
2023-10-03T02:31:36.464Z,5.12
2023-10-03T02:34:04.680Z,5.06
2023-10-03T02:36:32.714Z,5.03
2023-10-03T02:39:02.266Z,5.05
2023-10-03T02:41:31.997Z,5.06
2023-10-03T02:44:00.045Z,5.04
2023-10-03T02:46:31.334Z,4.98
2023-10-03T02:48:59.456Z,4.98
2023-10-03T02:51:27.840Z,4.99
2023-10-03T02:53:55.852Z,4.83
2023-10-03T02:56:23.974Z,4.76
2023-10-03T02:58:52.314Z,4.83
2023-10-03T03:01:20.942Z,4.83
2023-10-03T03:03:51.185Z,4.86
2023-10-03T03:06:19.960Z,4.84
2023-10-03T03:08:47.824Z,4.84
2023-10-03T03:11:16.798Z,4.83
2023-10-03T03:13:44.827Z,4.81
2023-10-03T03:16:15.796Z,4.85
2023-10-03T03:18:45.645Z,4.78
2023-10-03T03:21:21.813Z,4.75
2023-10-03T03:23:58.987Z,4.73
2023-10-03T03:26:38.253Z,4.82
2023-10-03T03:29:21.051Z,4.78
2023-10-03T03:31:50.763Z,4.81
2023-10-03T03:34:20.907Z,4.78
2023-10-03T03:36:51.208Z,4.83
2023-10-03T03:39:22.150Z,4.81
2023-10-03T03:41:50.997Z,4.76
2023-10-03T03:44:20.608Z,4.71
2023-10-03T03:46:49.521Z,4.67
2023-10-03T03:49:20.373Z,4.66
2023-10-03T03:51:48.546Z,4.68
2023-10-03T03:54:18.268Z,4.69
2023-10-03T03:56:46.841Z,4.72
2023-10-03T03:59:17.280Z,4.69
2023-10-03T04:01:45.821Z,4.67
2023-10-03T04:04:14.131Z,4.67
2023-10-03T04:06:43.678Z,4.61
2023-10-03T04:09:15.515Z,4.58
2023-10-03T04:11:45.393Z,4.58
2023-10-03T04:14:13.458Z,4.63
2023-10-03T04:16:42.855Z,4.65
2023-10-03T04:19:11.802Z,4.64
2023-10-03T04:21:41.840Z,4.69
2023-10-03T04:24:12.532Z,4.74
2023-10-03T04:26:44.322Z,4.73
2023-10-03T04:29:16.583Z,4.74
2023-10-03T04:31:45.746Z,4.67
2023-10-03T04:34:17.776Z,4.67
2023-10-03T04:36:46.830Z,4.72
2023-10-03T04:39:15.241Z,4.73
2023-10-03T04:41:45.360Z,4.72
2023-10-03T04:44:18.852Z,4.69
2023-10-03T04:46:47.561Z,4.67
2023-10-03T04:49:16.053Z,4.64
2023-10-03T04:51:48.974Z,4.63
2023-10-03T04:54:19.074Z,4.56
2023-10-03T04:56:50.251Z,4.57
2023-10-03T04:59:22.457Z,4.59
2023-10-03T05:01:52.375Z,4.59
2023-10-03T05:04:20.554Z,4.61
2023-10-03T05:06:50.540Z,4.64
2023-10-03T05:09:19.632Z,4.61
2023-10-03T05:11:50.307Z,4.64
2023-10-03T05:14:20.313Z,4.69
2023-10-03T05:16:52.296Z,4.76
2023-10-03T05:19:20.674Z,4.82
2023-10-03T05:21:49.070Z,4.85
2023-10-03T05:24:17.829Z,4.88
2023-10-03T05:26:45.612Z,4.97
2023-10-03T05:29:13.676Z,5.02
2023-10-03T05:31:43.149Z,5.09
2023-10-03T05:34:11.337Z,5.10
2023-10-03T05:36:40.146Z,5.15
2023-10-03T05:39:13.176Z,5.17
2023-10-03T05:41:42.410Z,5.19
2023-10-03T05:44:13.202Z,5.17
2023-10-03T05:46:43.611Z,5.18
2023-10-03T05:49:12.148Z,5.21
2023-10-03T05:51:41.152Z,5.17
2023-10-03T05:54:09.339Z,5.19
2023-10-03T05:56:38.350Z,5.22
2023-10-03T05:59:08.366Z,5.25
2023-10-03T06:01:36.528Z,5.22
2023-10-03T06:04:06.813Z,5.21
2023-10-03T06:06:34.985Z,5.27
2023-10-03T06:09:03.990Z,5.35
2023-10-03T06:11:32.760Z,5.37
2023-10-03T06:14:00.895Z,5.35
2023-10-03T06:16:29.549Z,5.38
2023-10-03T06:18:58.651Z,5.40
2023-10-03T06:21:28.316Z,5.44
2023-10-03T06:23:56.550Z,5.52
2023-10-03T06:26:24.614Z,5.60
2023-10-03T06:28:52.637Z,5.63
2023-10-03T06:31:20.649Z,5.67
2023-10-03T06:33:48.938Z,5.71
2023-10-03T06:36:17.833Z,5.82
2023-10-03T06:38:47.010Z,5.84
2023-10-03T06:41:20.587Z,5.81
2023-10-03T06:43:48.830Z,5.82
2023-10-03T06:46:17.395Z,5.87
2023-10-03T06:48:46.600Z,5.93
2023-10-03T06:51:14.855Z,5.95
2023-10-03T06:53:43.801Z,5.98
2023-10-03T06:56:13.194Z,6.02
2023-10-03T06:58:45.772Z,6.09
2023-10-03T07:01:14.343Z,6.13
2023-10-03T07:03:42.455Z,6.21
2023-10-03T07:06:10.783Z,6.22
2023-10-03T07:08:39.400Z,6.28
2023-10-03T07:11:13.946Z,6.31
2023-10-03T07:13:51.067Z,6.33
2023-10-03T07:16:20.105Z,6.34
2023-10-03T07:18:51.206Z,6.28
2023-10-03T07:21:19.564Z,6.31
2023-10-03T07:23:47.685Z,6.28
2023-10-03T07:26:17.121Z,6.35
2023-10-03T07:28:45.120Z,6.34
2023-10-03T07:31:15.182Z,6.41
2023-10-03T07:33:45.656Z,6.44
2023-10-03T07:36:14.917Z,6.51
2023-10-03T07:38:43.109Z,6.58
2023-10-03T07:41:12.196Z,6.66
2023-10-03T07:43:42.071Z,6.74
2023-10-03T07:46:10.514Z,6.79
2023-10-03T07:48:38.685Z,6.83
2023-10-03T07:51:07.157Z,6.87
2023-10-03T07:53:37.821Z,6.97
2023-10-03T07:56:10.891Z,7.00
2023-10-03T07:58:38.857Z,7.06
2023-10-03T08:01:08.993Z,7.09
2023-10-03T08:03:37.083Z,7.11
2023-10-03T08:06:07.879Z,7.18
2023-10-03T08:08:38.700Z,7.17
2023-10-03T08:11:08.318Z,7.23
2023-10-03T08:13:40.491Z,7.27
2023-10-03T08:16:10.333Z,7.28
2023-10-03T08:18:47.532Z,7.38
2023-10-03T08:21:15.778Z,7.42
2023-10-03T08:23:47.790Z,7.45
2023-10-03T08:26:15.916Z,7.51
2023-10-03T08:28:43.953Z,7.53
2023-10-03T08:31:13.439Z,7.54
2023-10-03T08:33:41.648Z,7.62
2023-10-03T08:36:16.625Z,7.69
2023-10-03T08:38:45.795Z,7.77
2023-10-03T08:41:19.119Z,7.91
2023-10-03T08:43:55.547Z,7.98
2023-10-03T08:46:30.833Z,8.12
2023-10-03T08:49:02.913Z,8.18
2023-10-03T08:51:34.162Z,8.26
2023-10-03T08:54:10.474Z,8.34
2023-10-03T08:56:42.429Z,8.42
2023-10-03T08:59:11.256Z,8.43
2023-10-03T09:01:46.846Z,8.51
2023-10-03T09:04:18.541Z,8.56
2023-10-03T09:06:47.300Z,8.68
2023-10-03T09:09:17.939Z,8.75
2023-10-03T09:11:52.663Z,8.78
2023-10-03T09:14:22.230Z,8.83
2023-10-03T09:16:54.219Z,8.90
2023-10-03T09:19:25.924Z,8.91
2023-10-03T09:21:54.251Z,8.95
2023-10-03T09:24:23.248Z,8.98
2023-10-03T09:26:55.640Z,9.00
2023-10-03T09:29:34.219Z,9.02
2023-10-03T09:32:14.128Z,9.06
2023-10-03T09:34:43.526Z,9.10
2023-10-03T09:37:12.198Z,9.14
2023-10-03T09:39:50.892Z,9.20
2023-10-03T09:42:24.997Z,9.24
2023-10-03T09:44:59.469Z,9.28
2023-10-03T09:47:36.539Z,9.34
2023-10-03T09:50:09.506Z,9.37
2023-10-03T09:52:47.141Z,9.43
2023-10-03T09:55:23.310Z,9.44
2023-10-03T09:57:56.505Z,9.47
2023-10-03T10:00:42.072Z,9.51
2023-10-03T10:03:15.710Z,9.56
2023-10-03T10:05:55.074Z,9.51
2023-10-03T10:08:41.218Z,9.52
2023-10-03T10:11:11.295Z,9.51
2023-10-03T10:13:48.281Z,9.64
2023-10-03T10:16:22.069Z,9.67
2023-10-03T10:19:02.639Z,9.70
2023-10-03T10:21:33.202Z,9.73
2023-10-03T10:24:29.766Z,9.73
2023-10-03T10:27:01.367Z,9.75
2023-10-03T10:29:30.147Z,9.78
2023-10-03T10:32:01.504Z,9.81
2023-10-03T10:34:34.128Z,9.89
2023-10-03T10:37:11.289Z,9.92
2023-10-03T10:40:23.209Z,9.91
2023-10-03T10:43:12.740Z,9.90
2023-10-03T10:45:42.701Z,9.90
2023-10-03T10:48:13.091Z,9.84
2023-10-03T10:51:12.427Z,9.92
2023-10-03T10:53:41.351Z,9.93
2023-10-03T10:56:11.182Z,9.92
2023-10-03T10:59:05.365Z,9.95
2023-10-03T11:01:43.872Z,9.97
2023-10-03T11:04:24.755Z,9.99
2023-10-03T11:06:54.658Z,10.01
2023-10-03T11:09:24.411Z,10.02
2023-10-03T11:11:53.389Z,10.00
2023-10-03T11:14:30.827Z,9.97
2023-10-03T11:16:59.961Z,10.00
2023-10-03T11:19:31.581Z,9.99
2023-10-03T11:22:01.339Z,10.03
2023-10-03T11:24:34.357Z,10.03
2023-10-03T11:27:02.411Z,10.03
2023-10-03T11:29:38.851Z,10.07
2023-10-03T11:32:18.060Z,10.10
2023-10-03T11:34:46.417Z,10.13
2023-10-03T11:40:14.465Z,10.14
2023-10-03T11:42:47.025Z,10.09
2023-10-03T11:45:19.953Z,10.16
2023-10-03T11:48:08.187Z,10.20
2023-10-03T11:50:38.175Z,10.23
2023-10-03T11:53:06.996Z,10.26
2023-10-03T11:55:37.759Z,10.32
2023-10-03T11:58:07.872Z,10.35
2023-10-03T12:00:38.199Z,10.38
2023-10-03T12:03:07.742Z,10.37
2023-10-03T12:05:37.564Z,10.39
2023-10-03T12:08:08.507Z,10.45
2023-10-03T12:10:37.952Z,10.49
2023-10-03T12:13:06.140Z,10.59
2023-10-03T12:15:35.633Z,10.65
2023-10-03T12:18:03.969Z,10.77
2023-10-03T12:20:34.971Z,10.82
2023-10-03T12:23:05.467Z,10.89
2023-10-03T12:25:33.537Z,10.89
2023-10-03T12:28:02.975Z,10.90
2023-10-03T12:31:26.472Z,10.89
2023-10-03T12:34:21.762Z,10.92
2023-10-03T12:37:23.755Z,11.03
2023-10-03T12:43:15.578Z,11.11
2023-10-03T12:46:14.265Z,11.16
2023-10-03T12:48:44.695Z,11.23
2023-10-03T12:51:13.303Z,11.27
2023-10-03T12:54:23.741Z,11.29
2023-10-03T12:57:16.895Z,11.31
2023-10-03T13:00:08.659Z,11.39
2023-10-03T13:02:58.152Z,11.39
2023-10-03T13:05:29.406Z,11.36
2023-10-03T13:09:07.483Z,11.38
2023-10-03T13:11:50.710Z,11.42
2023-10-03T13:17:17.826Z,11.48
2023-10-03T13:19:46.246Z,11.52
2023-10-03T13:22:37.316Z,11.52
2023-10-03T13:25:09.067Z,11.59
2023-10-03T13:27:44.586Z,11.62
2023-10-03T13:30:34.670Z,11.61
2023-10-03T13:33:17.472Z,11.60
2023-10-03T13:35:56.089Z,11.61
2023-10-03T13:38:27.071Z,11.71
2023-10-03T13:40:55.113Z,11.67
2023-10-03T13:43:30.768Z,11.70
2023-10-03T13:46:01.544Z,11.72
2023-10-03T13:48:37.102Z,11.82
2023-10-03T13:51:05.870Z,11.88
2023-10-03T13:53:34.773Z,11.97
2023-10-03T13:56:03.977Z,12.01
2023-10-03T13:58:53.683Z,12.12
2023-10-03T14:01:24.662Z,12.08
2023-10-03T14:04:01.533Z,12.01
2023-10-03T14:06:31.484Z,11.85
2023-10-03T14:09:07.223Z,11.83
2023-10-03T14:12:09.852Z,11.78
2023-10-03T14:14:52.637Z,11.71
2023-10-03T14:17:23.144Z,11.65
2023-10-03T14:19:55.686Z,11.64
2023-10-03T14:22:25.947Z,11.68
2023-10-03T14:24:54.115Z,11.70
2023-10-03T14:30:37.954Z,11.60
2023-10-03T14:33:11.337Z,11.70
2023-10-03T14:35:45.038Z,11.68
2023-10-03T14:38:14.853Z,11.70
2023-10-03T14:40:54.548Z,11.67
2023-10-03T14:43:41.121Z,11.69
2023-10-03T14:46:11.929Z,11.63
2023-10-03T14:48:42.365Z,11.62
2023-10-03T14:51:28.071Z,11.54
2023-10-03T14:53:59.564Z,11.51
2023-10-03T14:56:27.636Z,11.50
2023-10-03T14:58:55.743Z,11.49
2023-10-03T15:01:46.156Z,11.40
2023-10-03T15:04:15.628Z,11.34
2023-10-03T15:06:48.336Z,11.34
2023-10-03T15:09:16.458Z,11.34
2023-10-03T15:12:00.786Z,11.31
2023-10-03T15:14:30.610Z,11.28
2023-10-03T15:17:02.361Z,11.23
2023-10-03T15:19:30.359Z,11.16
2023-10-03T15:22:04.988Z,11.12
2023-10-03T15:24:36.188Z,11.07
2023-10-03T15:27:11.001Z,11.01
2023-10-03T15:29:39.443Z,11.04
2023-10-03T15:32:10.714Z,11.04
2023-10-03T15:34:44.541Z,11.05
2023-10-03T15:37:14.328Z,11.01
2023-10-03T15:39:42.414Z,10.97
2023-10-03T15:42:11.207Z,10.94
2023-10-03T15:44:43.922Z,10.90
2023-10-03T15:47:16.540Z,10.78
2023-10-03T15:49:44.674Z,10.71
2023-10-03T15:52:14.052Z,10.62
2023-10-03T15:54:42.999Z,10.54
2023-10-03T15:57:12.477Z,10.42
2023-10-03T15:59:40.885Z,10.41
2023-10-03T16:02:08.993Z,10.39
2023-10-03T16:04:39.521Z,10.27
2023-10-03T16:07:07.744Z,10.16
2023-10-03T16:09:37.304Z,10.06
2023-10-03T16:12:06.656Z,10.04
2023-10-03T16:14:34.670Z,10.03
2023-10-03T16:17:02.663Z,10.03
2023-10-03T16:19:32.556Z,9.92
2023-10-03T16:22:00.916Z,9.88
2023-10-03T16:24:29.106Z,9.80
2023-10-03T16:26:59.089Z,9.72
2023-10-03T16:29:29.508Z,9.59
2023-10-03T16:31:57.837Z,9.60
2023-10-03T16:34:27.226Z,9.52
2023-10-03T16:36:55.272Z,9.45
2023-10-03T16:39:25.693Z,9.45
2023-10-03T16:41:53.975Z,9.44
2023-10-03T16:44:26.562Z,9.37
2023-10-03T16:46:54.589Z,9.39
2023-10-03T16:49:22.657Z,9.33
2023-10-03T16:51:51.210Z,9.30
2023-10-03T16:54:26.663Z,9.26
2023-10-03T16:56:54.793Z,9.17
2023-10-03T16:59:22.816Z,9.14
2023-10-03T17:01:55.263Z,9.15
2023-10-03T17:04:23.261Z,9.13
2023-10-03T17:06:51.764Z,9.10
2023-10-03T17:09:19.980Z,9.04
2023-10-03T17:11:52.370Z,9.01
2023-10-03T17:14:20.396Z,8.94
2023-10-03T17:16:49.229Z,8.90
2023-10-03T17:19:18.741Z,8.90
2023-10-03T17:21:46.718Z,8.94
2023-10-03T17:24:15.791Z,8.86
2023-10-03T17:26:44.229Z,8.90
2023-10-03T17:29:16.986Z,8.90
2023-10-03T17:31:45.076Z,8.87
2023-10-03T17:34:13.740Z,8.79
2023-10-03T17:36:46.143Z,8.75
2023-10-03T17:39:18.766Z,8.75
2023-10-03T17:41:47.017Z,8.73
2023-10-03T17:44:15.763Z,8.71
2023-10-03T17:46:43.993Z,8.67
2023-10-03T17:49:12.087Z,8.62
2023-10-03T17:51:40.226Z,8.57
2023-10-03T17:54:23.058Z,8.54
2023-10-03T17:56:58.119Z,8.45
2023-10-03T17:59:27.161Z,8.43
2023-10-03T18:01:56.489Z,8.35
2023-10-03T18:04:25.052Z,8.31
2023-10-03T18:06:54.966Z,8.26
2023-10-03T18:09:26.333Z,8.18
2023-10-03T18:11:56.090Z,8.11
2023-10-03T18:14:24.331Z,8.10
2023-10-03T18:16:52.859Z,8.00
2023-10-03T18:19:20.998Z,7.95
2023-10-03T18:21:49.149Z,7.87
2023-10-03T18:24:17.512Z,7.87
2023-10-03T18:26:49.188Z,7.83
2023-10-03T18:29:18.295Z,7.80
2023-10-03T18:31:46.369Z,7.75
2023-10-03T18:34:14.524Z,7.74
2023-10-03T18:36:42.877Z,7.70
2023-10-03T18:39:11.175Z,7.69
2023-10-03T18:41:39.204Z,7.68
2023-10-03T18:44:11.027Z,7.60
2023-10-03T18:46:39.546Z,7.52
2023-10-03T18:49:07.900Z,7.51
2023-10-03T18:51:36.372Z,7.50
2023-10-03T18:54:12.727Z,7.42
2023-10-03T18:56:41.177Z,7.41
2023-10-03T18:59:10.572Z,7.42
2023-10-03T19:01:49.038Z,7.39
2023-10-03T19:04:18.078Z,7.34
2023-10-03T19:06:46.427Z,7.34
2023-10-03T19:09:15.039Z,7.27
2023-10-03T19:11:46.597Z,7.27
2023-10-03T19:14:16.524Z,7.23
2023-10-03T19:16:45.829Z,7.20
2023-10-03T19:19:14.663Z,7.14
2023-10-03T19:21:43.214Z,7.09
2023-10-03T19:24:11.588Z,7.12
2023-10-03T19:26:39.885Z,7.07
2023-10-03T19:29:13.218Z,7.04
2023-10-03T19:31:45.688Z,6.99
2023-10-03T19:34:13.820Z,6.95
2023-10-03T19:36:41.869Z,6.91
2023-10-03T19:39:11.811Z,6.88
2023-10-03T19:41:41.437Z,6.74
2023-10-03T19:44:13.885Z,6.66
2023-10-03T19:46:51.728Z,6.58
2023-10-03T19:49:19.758Z,6.50
2023-10-03T19:51:49.050Z,6.49
2023-10-03T19:54:17.157Z,6.46
2023-10-03T19:56:45.607Z,6.42
2023-10-03T19:59:13.795Z,6.37
2023-10-03T20:01:42.058Z,6.35
2023-10-03T20:04:12.311Z,6.33
2023-10-03T20:06:40.617Z,6.31
2023-10-03T20:09:12.328Z,6.29
2023-10-03T20:11:41.193Z,6.26
2023-10-03T20:14:09.848Z,6.30
2023-10-03T20:16:38.325Z,6.26
2023-10-03T20:19:10.170Z,6.24
2023-10-03T20:21:40.527Z,6.21
2023-10-03T20:24:09.161Z,6.14
2023-10-03T20:26:37.108Z,6.12
2023-10-03T20:29:06.490Z,6.06
2023-10-03T20:31:34.899Z,5.97
2023-10-03T20:34:08.201Z,5.94
2023-10-03T20:36:36.285Z,5.93
2023-10-03T20:39:07.202Z,5.97
2023-10-03T20:41:35.401Z,5.93
2023-10-03T20:44:03.451Z,5.98
2023-10-03T20:46:31.491Z,5.97
2023-10-03T20:48:59.578Z,5.95
2023-10-03T20:51:27.647Z,5.96
2023-10-03T20:53:55.867Z,5.92
2023-10-03T20:56:25.341Z,5.92
2023-10-03T20:58:55.753Z,5.87
2023-10-03T21:01:26.854Z,5.89
2023-10-03T21:04:05.333Z,5.84
2023-10-03T21:06:35.818Z,5.83
2023-10-03T21:09:04.482Z,5.82
2023-10-03T21:11:37.963Z,5.78
2023-10-03T21:14:08.402Z,5.71
2023-10-03T21:16:38.364Z,5.73
2023-10-03T21:19:06.580Z,5.69
2023-10-03T21:21:34.936Z,5.65
2023-10-03T21:24:03.570Z,5.62
2023-10-03T21:26:31.670Z,5.60
2023-10-03T21:29:02.186Z,5.54
2023-10-03T21:31:30.361Z,5.54
2023-10-03T21:34:00.368Z,5.56
2023-10-03T21:36:28.561Z,5.56
2023-10-03T21:38:56.594Z,5.55
2023-10-03T21:41:24.708Z,5.53
2023-10-03T21:43:55.000Z,5.59
2023-10-03T21:46:25.458Z,5.60
2023-10-03T21:48:53.738Z,5.66
2023-10-03T21:51:21.799Z,5.71
2023-10-03T21:53:50.949Z,5.73
2023-10-03T21:56:19.214Z,5.75
2023-10-03T21:58:47.713Z,5.75
2023-10-03T22:01:17.571Z,5.75
2023-10-03T22:03:47.364Z,5.76
2023-10-03T22:06:15.367Z,5.78
2023-10-03T22:08:43.613Z,5.77
2023-10-03T22:11:12.993Z,5.77
2023-10-03T22:13:42.353Z,5.76
2023-10-03T22:16:10.742Z,5.76
2023-10-03T22:18:45.515Z,5.81
2023-10-03T22:21:16.110Z,5.86
2023-10-03T22:23:46.912Z,5.91
2023-10-03T22:26:19.969Z,5.90
2023-10-03T22:28:51.209Z,5.89
2023-10-03T22:31:24.219Z,5.85
2023-10-03T22:33:58.610Z,5.82
2023-10-03T22:36:29.687Z,5.84
2023-10-03T22:38:59.968Z,5.86
2023-10-03T22:41:28.025Z,5.85
2023-10-03T22:43:57.370Z,5.87
2023-10-03T22:46:26.481Z,5.82
2023-10-03T22:48:54.581Z,5.77
2023-10-03T22:51:22.755Z,5.64
2023-10-03T22:53:54.200Z,5.60
2023-10-03T22:56:26.514Z,5.42
2023-10-03T22:58:55.271Z,5.26
2023-10-03T23:01:26.523Z,5.21
2023-10-03T23:04:00.463Z,5.06
2023-10-03T23:06:29.780Z,4.88
2023-10-03T23:08:59.425Z,4.82
2023-10-03T23:11:27.565Z,4.74
2023-10-03T23:13:56.939Z,4.69
2023-10-03T23:16:30.311Z,4.66
2023-10-03T23:19:02.692Z,4.57
2023-10-03T23:21:31.265Z,4.49
2023-10-03T23:24:01.661Z,4.44
2023-10-03T23:26:30.675Z,4.45
2023-10-03T23:28:58.946Z,4.43
2023-10-03T23:31:35.901Z,4.40
2023-10-03T23:34:08.237Z,4.39
2023-10-03T23:36:36.504Z,4.35
2023-10-03T23:39:07.705Z,4.33
2023-10-03T23:41:38.530Z,4.35
2023-10-03T23:44:08.236Z,4.33
2023-10-03T23:46:36.365Z,4.38
2023-10-03T23:49:06.083Z,4.44
2023-10-03T23:51:34.279Z,4.47
2023-10-03T23:54:08.390Z,4.42
2023-10-03T23:56:40.457Z,4.43
2023-10-03T23:59:11.190Z,4.44
